Time;durP1;ratioP1;P1;durP2;ratioP2;P2;SDS_P1;SDS_P2;PMS_P1;PMS_P2;Temp;Humidity;BMP_temperature;BMP_pressure;BME280_temperature;BME280_humidity;BME280_pressure;Samples;Min_cycle;Max_cycle;Signal;HPM_P1;HPM_P2
2022/05/07 00:00:02;;;;;;;12.50;6.77;;;18.00;51.80;;;;;;5052799;28;20207;-94
2022/05/07 00:02:31;;;;;;;12.40;6.83;;;18.00;51.50;;;;;;5052520;28;20294;-94
2022/05/07 00:05:02;;;;;;;13.40;7.03;;;18.00;51.90;;;;;;5049802;28;20209;-94
2022/05/07 00:07:34;;;;;;;11.50;6.60;;;18.00;51.90;;;;;;5052062;28;20286;-95
2022/05/07 00:10:01;;;;;;;11.17;6.37;;;17.90;51.70;;;;;;5053386;28;20268;-95
2022/05/07 00:12:28;;;;;;;11.00;6.43;;;17.90;51.70;;;;;;5055330;28;20214;-95
2022/05/07 00:15:12;;;;;;;23.70;8.90;;;17.90;51.80;;;;;;5051228;28;20626;-95
2022/05/07 00:18:05;;;;;;;18.27;8.63;;;17.90;52.30;;;;;;5052035;28;20209;-95
2022/05/07 00:23:42;;;;;;;16.53;8.40;;;17.80;52.50;;;;;;5046790;28;21058;-93
2022/05/07 00:26:09;;;;;;;12.50;6.97;;;17.80;52.20;;;;;;5053935;28;20216;-95
2022/05/07 00:28:47;;;;;;;10.17;6.47;;;17.80;52.60;;;;;;5055189;28;20261;-95
2022/05/07 00:31:15;;;;;;;14.73;7.60;;;17.80;52.80;;;;;;5053266;28;20237;-94
2022/05/07 00:33:51;;;;;;;16.57;8.13;;;17.80;53.10;;;;;;5052015;28;20230;-95
2022/05/07 00:36:27;;;;;;;16.90;8.70;;;17.70;53.40;;;;;;5037569;28;20219;-95
2022/05/07 00:39:01;;;;;;;15.17;8.10;;;17.70;53.20;;;;;;5052251;28;20665;-95
2022/05/07 00:41:33;;;;;;;16.77;8.10;;;17.60;53.00;;;;;;5053249;28;20214;-95
2022/05/07 00:44:03;;;;;;;14.97;8.30;;;17.60;53.40;;;;;;5051309;28;20196;-95
2022/05/07 00:46:32;;;;;;;13.97;8.20;;;17.60;53.30;;;;;;5055576;28;20207;-95
2022/05/07 00:49:05;;;;;;;12.40;7.40;;;17.60;53.50;;;;;;5057883;28;20211;-95
2022/05/07 00:51:35;;;;;;;14.47;7.47;;;17.60;53.40;;;;;;5063085;28;20214;-96
2022/05/07 00:54:07;;;;;;;13.50;7.60;;;17.60;53.70;;;;;;5054918;28;20225;-96
2022/05/07 00:56:36;;;;;;;19.27;9.03;;;17.60;53.70;;;;;;5054211;28;20246;-94
2022/05/07 00:59:04;;;;;;;19.17;9.73;;;17.60;53.70;;;;;;5054429;28;20215;-94
2022/05/07 01:01:33;;;;;;;24.40;10.13;;;17.60;53.70;;;;;;5052300;28;20654;-95
2022/05/07 01:04:03;;;;;;;22.97;10.27;;;17.60;53.90;;;;;;5055769;28;20210;-95
2022/05/07 01:06:36;;;;;;;14.90;8.40;;;17.50;54.00;;;;;;5053066;28;22056;-96
2022/05/07 01:09:05;;;;;;;22.80;9.77;;;17.50;54.40;;;;;;5054499;28;20199;-96
2022/05/07 01:11:34;;;;;;;13.83;8.00;;;17.50;54.30;;;;;;5038394;28;20265;-95
2022/05/07 01:14:02;;;;;;;19.33;9.50;;;17.50;54.30;;;;;;5049172;28;20248;-96
2022/05/07 01:19:25;;;;;;;17.03;8.07;;;17.50;54.80;;;;;;5030715;28;20281;-95
2022/05/07 01:21:56;;;;;;;14.87;8.17;;;17.50;54.40;;;;;;5054523;28;20636;-96
2022/05/07 01:27:10;;;;;;;17.40;8.90;;;17.50;54.60;;;;;;5042001;28;20233;-96
2022/05/07 01:29:38;;;;;;;16.57;8.13;;;17.50;55.50;;;;;;5054827;28;20210;-95
2022/05/07 01:32:06;;;;;;;13.80;7.80;;;17.60;54.80;;;;;;5055868;28;20264;-95
2022/05/07 01:34:35;;;;;;;15.97;8.87;;;17.50;54.70;;;;;;5055955;28;20593;-95
2022/05/07 01:37:04;;;;;;;16.67;9.70;;;17.50;54.90;;;;;;5055060;28;20933;-96
2022/05/07 01:39:31;;;;;;;21.90;10.77;;;17.50;55.40;;;;;;5052070;28;20267;-94
2022/05/07 01:41:58;;;;;;;22.60;9.93;;;17.50;55.40;;;;;;5053245;28;20269;-96
2022/05/07 01:44:28;;;;;;;14.67;8.60;;;17.50;55.40;;;;;;5051938;28;20246;-96
2022/05/07 01:49:41;;;;;;;17.10;9.00;;;17.40;55.70;;;;;;5054740;28;20276;-94
2022/05/07 01:52:10;;;;;;;14.90;8.83;;;17.50;55.80;;;;;;5057536;28;20658;-95
2022/05/07 01:54:38;;;;;;;14.80;8.63;;;17.40;56.10;;;;;;5054530;28;20446;-94
2022/05/07 01:57:18;;;;;;;21.37;11.53;;;17.40;56.10;;;;;;5065433;28;20275;-95
2022/05/07 01:59:46;;;;;;;18.57;9.90;;;17.40;56.70;;;;;;5073246;28;20195;-94
2022/05/07 02:02:19;;;;;;;18.17;9.87;;;17.40;56.50;;;;;;5065455;28;20202;-93
2022/05/07 02:04:47;;;;;;;15.60;9.67;;;17.30;56.90;;;;;;5063989;28;20225;-94
2022/05/07 02:07:16;;;;;;;27.63;12.67;;;17.30;57.00;;;;;;5070146;28;20238;-94
2022/05/07 02:12:31;;;;;;;24.70;11.60;;;17.30;57.60;;;;;;5052745;28;20263;-95
2022/05/07 02:15:05;;;;;;;18.10;9.77;;;17.30;57.10;;;;;;5056698;28;20226;-95
2022/05/07 02:17:34;;;;;;;18.10;9.97;;;17.30;57.70;;;;;;5056224;28;20203;-93
2022/05/07 02:20:02;;;;;;;21.13;11.13;;;17.30;57.80;;;;;;5052630;28;20215;-95
2022/05/07 02:22:30;;;;;;;22.30;11.70;;;17.30;57.80;;;;;;5062156;28;20240;-95
2022/05/07 02:25:02;;;;;;;23.80;10.47;;;17.30;58.10;;;;;;5070259;28;20221;-95
2022/05/07 02:27:29;;;;;;;19.07;10.43;;;17.30;58.30;;;;;;5072151;28;20225;-95
2022/05/07 02:30:00;;;;;;;19.17;9.83;;;17.30;58.20;;;;;;5065251;28;20301;-95
2022/05/07 02:32:35;;;;;;;18.07;9.97;;;17.30;58.80;;;;;;5060460;28;20569;-95
2022/05/07 02:35:02;;;;;;;22.23;10.37;;;17.30;58.80;;;;;;5062293;28;20643;-96
2022/05/07 02:37:47;;;;;;;19.40;9.97;;;17.30;58.60;;;;;;5049539;28;20612;-95
2022/05/07 02:40:15;;;;;;;19.97;9.80;;;17.30;59.70;;;;;;5055623;28;20216;-95
2022/05/07 02:42:43;;;;;;;18.20;10.03;;;17.30;58.70;;;;;;5055364;28;20212;-96
2022/05/07 02:45:12;;;;;;;23.77;10.57;;;17.30;58.70;;;;;;5055722;28;20214;-96
2022/05/07 02:47:45;;;;;;;25.00;11.00;;;17.30;58.90;;;;;;5053215;28;20272;-96
2022/05/07 02:50:13;;;;;;;24.73;10.73;;;17.30;59.30;;;;;;5043638;28;20233;-96
2022/05/07 02:52:40;;;;;;;16.70;10.07;;;17.30;59.10;;;;;;5052861;28;20218;-96
2022/05/07 02:55:11;;;;;;;17.83;10.87;;;17.40;59.40;;;;;;5055307;28;20305;-96
2022/05/07 02:57:38;;;;;;;25.37;11.93;;;17.40;59.90;;;;;;5050786;28;20214;-96
2022/05/07 03:00:06;;;;;;;21.03;10.90;;;17.40;59.60;;;;;;5053795;28;20692;-95
2022/05/07 03:02:35;;;;;;;21.77;10.67;;;17.50;59.80;;;;;;5050949;28;20209;-95
2022/05/07 03:05:02;;;;;;;22.30;10.37;;;17.40;60.10;;;;;;5056637;28;20191;-95
2022/05/07 03:07:31;;;;;;;23.93;10.07;;;17.40;60.00;;;;;;5053709;28;20218;-95
2022/05/07 03:10:00;;;;;;;22.07;10.23;;;17.50;60.20;;;;;;5058477;28;20581;-96
2022/05/07 03:12:30;;;;;;;22.87;11.17;;;17.50;60.40;;;;;;5053953;28;20211;-95
2022/05/07 03:14:57;;;;;;;19.80;10.27;;;17.50;60.40;;;;;;5060088;28;20202;-95
2022/05/07 03:17:27;;;;;;;22.33;10.40;;;17.50;60.60;;;;;;5055734;28;20207;-95
2022/05/07 03:19:54;;;;;;;21.97;10.40;;;17.50;61.00;;;;;;5056345;28;20265;-95
2022/05/07 03:22:22;;;;;;;23.03;10.43;;;17.50;60.70;;;;;;5056237;28;20202;-96
2022/05/07 03:24:57;;;;;;;23.37;9.93;;;17.50;60.80;;;;;;5035761;28;20202;-96
2022/05/07 03:27:39;;;;;;;22.50;10.37;;;17.60;61.80;;;;;;5056205;22;20647;-96
2022/05/07 03:30:09;;;;;;;19.90;9.83;;;17.60;61.10;;;;;;5052316;28;20621;-96
2022/05/07 03:35:56;;;;;;;27.10;11.83;;;17.60;61.80;;;;;;5005824;28;20248;-96
2022/05/07 03:38:27;;;;;;;23.00;9.90;;;17.60;61.30;;;;;;5021430;28;20207;-96
2022/05/07 03:40:54;;;;;;;31.27;12.30;;;17.60;62.10;;;;;;5034553;28;20199;-96
2022/05/07 03:43:51;;;;;;;28.33;12.23;;;17.60;62.30;;;;;;5016371;28;20259;-96
2022/05/07 03:46:24;;;;;;;22.80;10.67;;;17.60;63.50;;;;;;5034066;28;20210;-96
2022/05/07 03:48:58;;;;;;;24.50;11.53;;;17.60;62.70;;;;;;5031989;28;20227;-96
2022/05/07 03:51:25;;;;;;;27.60;10.60;;;17.60;63.10;;;;;;5034525;28;20739;-95
2022/05/07 03:53:53;;;;;;;20.17;10.50;;;17.60;62.50;;;;;;5041887;28;20256;-94
2022/05/07 03:59:09;;;;;;;20.43;10.50;;;17.60;63.10;;;;;;5024230;28;20218;-95
2022/05/07 04:01:37;;;;;;;22.13;10.80;;;17.60;63.10;;;;;;5016605;28;20572;-95
2022/05/07 04:04:06;;;;;;;18.80;10.50;;;17.60;63.10;;;;;;5026321;28;20294;-95
2022/05/07 04:06:42;;;;;;;22.03;10.87;;;17.60;63.20;;;;;;5033020;28;20717;-94
2022/05/07 04:09:25;;;;;;;21.07;11.13;;;17.60;63.20;;;;;;5032140;28;20322;-95
2022/05/07 04:11:53;;;;;;;20.70;10.93;;;17.70;64.40;;;;;;5033769;28;20216;-94
2022/05/07 04:14:22;;;;;;;28.43;11.27;;;17.70;63.30;;;;;;5032728;28;20257;-95
2022/05/07 04:16:50;;;;;;;25.00;10.63;;;17.70;63.80;;;;;;5033314;28;20203;-95
2022/05/07 04:19:23;;;;;;;19.53;10.50;;;17.70;63.60;;;;;;5031534;28;20207;-95
2022/05/07 04:21:54;;;;;;;20.57;10.03;;;17.70;64.30;;;;;;5029259;28;20206;-95
2022/05/07 04:24:22;;;;;;;20.53;10.33;;;17.70;64.10;;;;;;5036006;28;20215;-95
2022/05/07 04:27:03;;;;;;;23.10;10.83;;;17.70;63.90;;;;;;5037547;28;20208;-94
2022/05/07 04:29:33;;;;;;;22.13;11.67;;;17.70;64.00;;;;;;5031756;28;20285;-94
2022/05/07 04:32:38;;;;;;;26.63;11.03;;;17.80;65.10;;;;;;5035764;28;20227;-93
2022/05/07 04:35:18;;;;;;;23.33;11.60;;;17.80;65.60;;;;;;5037060;28;20231;-94
2022/05/07 04:37:55;;;;;;;19.93;10.97;;;17.70;63.90;;;;;;5018337;28;20194;-94
2022/05/07 04:43:17;;;;;;;20.60;10.80;;;17.70;65.40;;;;;;5060997;22;20234;-95
2022/05/07 04:45:49;;;;;;;23.97;11.67;;;17.70;64.30;;;;;;5053963;28;20202;-95
2022/05/07 04:48:19;;;;;;;21.03;9.90;;;17.70;65.20;;;;;;5056486;28;20333;-94
2022/05/07 04:51:14;;;;;;;28.53;12.30;;;17.70;65.40;;;;;;5053330;28;20203;-93
2022/05/07 04:53:54;;;;;;;23.77;11.10;;;17.70;65.30;;;;;;5053665;28;20211;-95
2022/05/07 04:56:24;;;;;;;28.47;11.93;;;17.70;66.20;;;;;;5054745;28;20210;-95
2022/05/07 05:01:34;;;;;;;34.47;13.17;;;17.70;65.40;;;;;;5033850;28;20243;-92
2022/05/07 05:04:02;;;;;;;19.83;9.97;;;17.70;65.70;;;;;;5055083;28;20210;-92
2022/05/07 05:06:30;;;;;;;20.53;10.17;;;17.70;65.70;;;;;;5054091;28;20203;-94
2022/05/07 05:08:57;;;;;;;19.80;10.80;;;17.70;65.90;;;;;;5055593;28;20231;-93
2022/05/07 05:11:25;;;;;;;20.70;11.03;;;17.80;65.90;;;;;;5053479;28;20257;-93
2022/05/07 05:13:53;;;;;;;20.47;10.83;;;17.80;66.00;;;;;;5055355;28;21054;-94
2022/05/07 05:16:20;;;;;;;24.73;12.50;;;17.80;66.20;;;;;;5052030;28;20207;-95
2022/05/07 05:18:52;;;;;;;24.20;10.73;;;17.80;66.10;;;;;;5055209;28;20648;-95
2022/05/07 05:21:20;;;;;;;23.93;10.83;;;17.90;66.50;;;;;;5052212;28;20204;-93
2022/05/07 05:23:53;;;;;;;21.20;10.33;;;17.90;66.30;;;;;;5054933;28;20227;-96
2022/05/07 05:26:22;;;;;;;22.70;11.20;;;17.90;66.80;;;;;;5051623;28;20738;-93
2022/05/07 05:28:51;;;;;;;16.83;9.90;;;17.90;66.40;;;;;;5053847;28;20259;-94
2022/05/07 05:31:19;;;;;;;19.17;9.80;;;18.00;66.30;;;;;;5053265;28;20225;-93
2022/05/07 05:33:46;;;;;;;25.97;11.27;;;18.00;66.40;;;;;;5059219;28;20268;-93
2022/05/07 05:36:16;;;;;;;27.10;12.23;;;18.00;66.40;;;;;;5075165;28;20218;-93
2022/05/07 05:38:46;;;;;;;22.63;10.10;;;18.10;66.50;;;;;;5066564;28;20216;-94
2022/05/07 05:41:13;;;;;;;25.30;11.80;;;18.10;66.80;;;;;;5052218;28;20284;-94
2022/05/07 05:43:44;;;;;;;24.13;11.13;;;18.10;66.50;;;;;;5070453;28;20229;-96
2022/05/07 05:46:16;;;;;;;20.97;10.27;;;18.10;66.70;;;;;;5054987;28;20646;-95
2022/05/07 05:48:44;;;;;;;22.27;11.83;;;18.10;66.70;;;;;;5054591;28;21000;-95
2022/05/07 05:51:11;;;;;;;21.13;10.83;;;18.10;66.50;;;;;;5052419;28;20957;-93
2022/05/07 05:53:40;;;;;;;26.70;12.07;;;18.20;66.50;;;;;;5049935;28;20207;-94
2022/05/07 05:56:07;;;;;;;20.23;11.37;;;18.10;67.40;;;;;;5051818;28;20226;-94
2022/05/07 05:58:40;;;;;;;21.17;12.03;;;18.10;66.50;;;;;;5052661;28;20238;-92
2022/05/07 06:01:07;;;;;;;26.10;11.40;;;18.10;67.50;;;;;;5072395;28;20195;-96
2022/05/07 06:03:35;;;;;;;25.10;11.93;;;18.20;66.80;;;;;;5073621;28;20203;-94
2022/05/07 06:06:04;;;;;;;26.60;11.60;;;18.20;66.90;;;;;;5071228;28;20202;-94
2022/05/07 06:08:31;;;;;;;16.40;9.33;;;18.20;67.20;;;;;;5060867;28;20230;-94
2022/05/07 06:11:02;;;;;;;24.67;11.60;;;18.30;67.00;;;;;;5052129;28;20254;-96
2022/05/07 06:13:33;;;;;;;19.57;10.70;;;18.30;67.60;;;;;;5044407;28;20207;-96
2022/05/07 06:16:06;;;;;;;23.67;11.87;;;18.30;67.70;;;;;;5052325;28;20269;-94
2022/05/07 06:18:33;;;;;;;19.47;10.27;;;18.30;67.70;;;;;;5047056;28;20215;-94
2022/05/07 06:21:03;;;;;;;22.10;11.60;;;18.40;67.20;;;;;;5053969;28;20305;-95
2022/05/07 06:23:31;;;;;;;14.07;9.20;;;18.40;67.40;;;;;;5055127;28;20210;-96
2022/05/07 06:28:43;;;;;;;18.87;9.97;;;18.50;67.40;;;;;;5050524;28;20698;-93
2022/05/07 06:31:12;;;;;;;17.10;9.87;;;18.50;68.60;;;;;;5050262;28;20207;-94
2022/05/07 06:33:40;;;;;;;23.17;10.87;;;18.60;68.10;;;;;;5051490;28;20311;-92
2022/05/07 06:36:08;;;;;;;17.03;9.77;;;18.60;67.70;;;;;;5052898;28;20227;-96
2022/05/07 06:38:37;;;;;;;20.73;11.63;;;18.70;68.30;;;;;;5052860;28;20208;-94
2022/05/07 06:41:05;;;;;;;20.70;9.60;;;18.70;67.80;;;;;;5053582;28;20196;-94
2022/05/07 06:43:33;;;;;;;23.87;10.43;;;18.80;67.60;;;;;;5052112;28;20261;-92
2022/05/07 06:46:04;;;;;;;16.57;9.60;;;18.90;67.50;;;;;;5057959;28;20261;-95
2022/05/07 06:48:32;;;;;;;23.80;11.13;;;19.00;67.70;;;;;;5059873;28;20234;-94
2022/05/07 06:51:01;;;;;;;20.17;11.07;;;19.00;67.50;;;;;;5042174;28;20236;-94
2022/05/07 06:53:29;;;;;;;19.87;8.83;;;19.10;67.20;;;;;;5034479;28;20645;-92
2022/05/07 06:55:59;;;;;;;23.80;11.13;;;19.20;68.00;;;;;;5048244;28;20266;-94
2022/05/07 06:58:29;;;;;;;17.93;9.60;;;19.20;67.20;;;;;;5055306;28;20258;-94
2022/05/07 07:00:58;;;;;;;14.97;8.27;;;19.30;67.00;;;;;;5034085;28;20554;-94
2022/05/07 07:03:29;;;;;;;21.10;9.67;;;19.40;66.90;;;;;;5036241;28;20208;-95
2022/05/07 07:05:58;;;;;;;19.33;9.93;;;19.40;66.90;;;;;;5051394;28;20208;-94
2022/05/07 07:08:29;;;;;;;16.50;9.13;;;19.40;66.50;;;;;;5054497;28;20222;-94
2022/05/07 07:10:56;;;;;;;21.67;9.80;;;19.50;66.50;;;;;;5049381;28;20240;-93
2022/05/07 07:13:23;;;;;;;16.00;8.73;;;19.50;66.20;;;;;;5054181;28;20271;-95
2022/05/07 07:15:51;;;;;;;18.10;9.03;;;19.50;66.20;;;;;;5055783;28;20269;-94
2022/05/07 07:18:18;;;;;;;22.63;10.93;;;19.50;66.10;;;;;;5051834;28;20314;-94
2022/05/07 07:20:49;;;;;;;24.73;10.43;;;19.60;66.10;;;;;;5051719;28;20269;-94
2022/05/07 07:23:16;;;;;;;19.07;9.17;;;19.60;66.10;;;;;;5049754;28;20219;-95
2022/05/07 07:25:45;;;;;;;20.03;10.27;;;19.60;65.80;;;;;;5044718;28;20219;-96
2022/05/07 07:28:13;;;;;;;16.00;8.23;;;19.70;65.90;;;;;;5049534;28;20218;-96
2022/05/07 07:30:41;;;;;;;17.67;8.33;;;19.70;65.60;;;;;;5050269;28;20305;-94
2022/05/07 07:33:13;;;;;;;15.23;8.57;;;19.70;65.50;;;;;;5051655;28;20228;-95
2022/05/07 07:35:48;;;;;;;18.80;8.93;;;19.70;65.80;;;;;;5053172;28;22057;-95
2022/05/07 07:38:15;;;;;;;13.83;8.67;;;19.70;66.00;;;;;;5053431;28;20203;-96
2022/05/07 07:40:49;;;;;;;14.70;8.23;;;19.70;65.50;;;;;;5051042;28;20204;-95
2022/05/07 07:43:17;;;;;;;17.60;8.57;;;19.80;65.90;;;;;;5048776;28;20200;-96
2022/05/07 07:48:30;;;;;;;25.23;11.17;;;19.80;65.80;;;;;;5047230;28;20219;-95
2022/05/07 07:51:00;;;;;;;19.97;8.90;;;19.80;65.60;;;;;;5046395;28;20231;-93
2022/05/07 07:53:27;;;;;;;15.13;8.90;;;19.80;65.90;;;;;;5049689;28;20324;-94
2022/05/07 07:56:04;;;;;;;13.07;7.70;;;19.80;65.60;;;;;;5052108;28;20639;-96
2022/05/07 07:58:31;;;;;;;13.80;8.13;;;19.90;66.90;;;;;;5046606;28;20201;-94
2022/05/07 08:01:06;;;;;;;14.90;7.97;;;19.90;65.80;;;;;;5032058;28;20204;-95
2022/05/07 08:03:34;;;;;;;16.87;7.77;;;19.90;66.30;;;;;;5049083;28;20260;-95
2022/05/07 08:06:04;;;;;;;19.00;8.60;;;19.90;66.90;;;;;;5051502;28;20200;-94
2022/05/07 08:14:16;;;;;;;13.60;7.13;;;20.00;65.70;;;;;;5059829;28;20192;-94
2022/05/07 08:16:47;;;;;;;14.77;8.20;;;20.10;65.80;;;;;;5061247;28;20528;-96
2022/05/07 08:19:20;;;;;;;13.20;7.73;;;20.20;66.00;;;;;;5048903;28;20269;-95
2022/05/07 08:21:52;;;;;;;16.67;7.63;;;20.20;66.00;;;;;;5051482;28;20200;-93
2022/05/07 08:24:19;;;;;;;13.03;7.03;;;20.30;66.10;;;;;;5052209;28;20214;-95
2022/05/07 08:26:57;;;;;;;16.40;8.20;;;20.30;65.50;;;;;;5053801;28;20218;-96
2022/05/07 08:29:30;;;;;;;11.53;7.13;;;20.50;65.10;;;;;;5059667;28;20249;-94
2022/05/07 08:32:13;;;;;;;12.40;7.00;;;20.50;65.00;;;;;;5057146;28;20200;-96
2022/05/07 08:34:41;;;;;;;12.83;6.87;;;20.50;65.00;;;;;;5056840;28;20224;-96
2022/05/07 08:40:05;;;;;;;16.70;9.10;;;20.70;64.60;;;;;;5029810;28;20266;-95
2022/05/07 08:42:36;;;;;;;10.83;6.93;;;20.80;64.40;;;;;;5045507;28;20216;-96
2022/05/07 08:45:06;;;;;;;13.07;7.33;;;20.90;64.10;;;;;;5059487;28;20200;-96
2022/05/07 08:47:42;;;;;;;12.40;7.00;;;20.90;64.10;;;;;;5061423;28;20196;-96
2022/05/07 08:53:08;;;;;;;15.17;8.10;;;21.10;63.80;;;;;;5053514;28;20664;-96
2022/05/07 08:55:47;;;;;;;15.77;8.40;;;21.20;63.60;;;;;;5060478;28;20204;-96
2022/05/07 08:58:46;;;;;;;15.60;8.43;;;21.30;63.40;;;;;;5059646;28;20200;-95
2022/05/07 09:01:13;;;;;;;13.40;7.13;;;21.40;63.10;;;;;;5055537;28;20200;-94
2022/05/07 09:03:45;;;;;;;15.33;8.23;;;21.50;62.90;;;;;;5055039;28;20196;-95
2022/05/07 09:06:21;;;;;;;13.00;6.90;;;21.70;62.40;;;;;;5057941;28;20226;-95
2022/05/07 09:08:53;;;;;;;16.47;8.87;;;21.70;61.90;;;;;;5062636;28;20211;-96
2022/05/07 09:11:21;;;;;;;16.23;8.37;;;21.80;61.60;;;;;;5061668;28;20216;-95
2022/05/07 09:14:01;;;;;;;13.70;8.83;;;22.00;61.70;;;;;;5062700;28;20211;-94
2022/05/07 09:16:42;;;;;;;10.77;7.10;;;22.10;60.60;;;;;;5066600;28;20205;-95
2022/05/07 09:19:33;;;;;;;12.37;8.20;;;22.20;60.40;;;;;;5071044;28;20198;-95
2022/05/07 09:22:10;;;;;;;10.00;6.63;;;22.30;59.90;;;;;;5058209;28;20197;-95
2022/05/07 09:24:58;;;;;;;12.13;6.53;;;22.40;59.60;;;;;;5071082;28;20195;-96
2022/05/07 09:30:25;;;;;;;11.90;7.07;;;22.60;59.40;;;;;;5067052;28;20226;-96
2022/05/07 09:33:02;;;;;;;11.00;7.07;;;22.70;59.60;;;;;;5067982;28;20222;-96
2022/05/07 09:35:49;;;;;;;13.97;7.90;;;22.70;59.20;;;;;;5063445;28;20207;-91
2022/05/07 09:39:06;;;;;;;11.60;7.07;;;22.80;59.00;;;;;;5049154;28;20211;-96
2022/05/07 09:41:43;;;;;;;14.13;8.20;;;22.90;58.90;;;;;;5052126;28;20228;-96
2022/05/07 09:44:14;;;;;;;11.43;7.80;;;22.90;58.90;;;;;;5067666;28;20237;-96
2022/05/07 09:46:43;;;;;;;12.73;7.60;;;23.00;58.70;;;;;;5066308;28;20208;-95
2022/05/07 09:49:11;;;;;;;10.63;7.10;;;23.00;58.70;;;;;;5067923;28;20202;-94
2022/05/07 09:51:42;;;;;;;8.23;5.20;;;23.10;58.70;;;;;;5062453;28;20248;-96
2022/05/07 10:00:13;;;;;;;10.20;6.60;;;23.30;57.60;;;;;;5049237;28;20217;-95
2022/05/07 10:06:28;;;;;;;8.73;5.37;;;23.40;58.00;;;;;;5055943;28;20258;-96
2022/05/07 10:12:30;;;;;;;12.37;7.17;;;23.60;57.50;;;;;;5061383;28;20287;-95
2022/05/07 10:15:07;;;;;;;8.67;6.40;;;23.60;57.20;;;;;;5065383;28;20196;-96
2022/05/07 10:17:41;;;;;;;15.40;8.40;;;23.80;57.20;;;;;;5062390;28;20208;-96
2022/05/07 10:20:23;;;;;;;13.63;7.17;;;23.80;56.50;;;;;;5066785;28;20226;-96
2022/05/07 10:26:28;;;;;;;11.23;7.97;;;24.10;56.70;;;;;;5070650;28;20187;-96
2022/05/07 10:29:39;;;;;;;11.27;8.00;;;24.30;56.80;;;;;;5068730;28;20214;-96
2022/05/07 10:35:58;;;;;;;13.63;8.67;;;24.50;55.80;;;;;;5074848;28;20323;-96
2022/05/07 10:42:21;;;;;;;11.97;7.33;;;24.60;55.30;;;;;;5048286;28;20216;-96
2022/05/07 10:45:28;;;;;;;11.80;7.70;;;24.60;55.20;;;;;;5072528;28;20207;-96
2022/05/07 10:48:05;;;;;;;9.77;7.73;;;24.50;54.80;;;;;;5066604;28;20186;-96
2022/05/07 10:57:16;;;;;;;8.63;6.07;;;24.50;55.20;;;;;;5069141;22;20240;-96
2022/05/07 11:17:42;;;;;;;8.23;5.17;;;25.10;54.80;;;;;;4895256;29;20261;-96
2022/05/07 11:23:26;;;;;;;6.40;4.93;;;25.40;54.10;;;;;;5002778;28;20208;-96
2022/05/07 11:25:55;;;;;;;8.67;5.07;;;25.40;54.00;;;;;;4988749;28;20234;-96
2022/05/07 11:28:38;;;;;;;9.33;5.87;;;25.40;54.10;;;;;;4996041;28;20227;-96
2022/05/07 11:35:20;;;;;;;9.37;6.27;;;25.30;53.60;;;;;;5016387;28;20217;-96
2022/05/07 11:37:59;;;;;;;13.67;6.90;;;25.20;53.50;;;;;;5025399;28;20240;-95
2022/05/07 11:40:50;;;;;;;7.80;6.60;;;25.20;53.60;;;;;;5010110;28;20210;-96
2022/05/07 11:46:07;;;;;;;9.07;6.83;;;25.20;53.50;;;;;;5032976;22;20280;-96
2022/05/07 11:48:45;;;;;;;11.63;7.80;;;25.20;53.50;;;;;;5027142;28;20263;-96
2022/05/07 11:54:26;;;;;;;7.97;6.17;;;25.20;53.90;;;;;;5024474;28;20236;-95
2022/05/07 11:57:15;;;;;;;;;;;;;;;;;;;;;
2022/05/07 12:03:08;;;;;;;10.10;7.00;;;25.40;52.60;;;;;;5016067;28;21020;-95
2022/05/07 12:05:47;;;;;;;11.27;8.10;;;25.50;52.80;;;;;;5020509;28;20214;-96
2022/05/07 12:08:33;;;;;;;9.70;6.53;;;25.60;52.70;;;;;;5026358;28;20226;-96
2022/05/07 12:11:07;;;;;;;9.90;6.37;;;25.70;53.30;;;;;;5028030;28;20310;-96
2022/05/07 12:13:37;;;;;;;11.90;7.20;;;25.80;52.90;;;;;;5026447;28;20236;-96
2022/05/07 12:18:57;;;;;;;6.57;4.93;;;25.90;52.30;;;;;;5028166;28;20216;-96
2022/05/07 12:30:14;;;;;;;4.50;3.53;;;26.50;52.10;;;;;;5032335;28;20269;-96
2022/05/07 12:33:04;;;;;;;4.90;3.53;;;26.70;51.00;;;;;;5030466;28;20244;-95
2022/05/07 12:35:35;;;;;;;5.03;3.50;;;26.80;50.30;;;;;;5024335;28;20232;-95
2022/05/07 12:38:16;;;;;;;5.20;2.90;;;26.90;50.40;;;;;;5021193;28;20557;-96
2022/05/07 12:41:21;;;;;;;6.77;4.20;;;27.00;50.00;;;;;;5023623;28;20215;-96
2022/05/07 12:43:48;;;;;;;7.30;4.03;;;27.20;49.30;;;;;;5021087;28;20201;-96
2022/05/07 12:46:16;;;;;;;4.50;2.80;;;27.30;49.60;;;;;;5024987;28;20273;-96
2022/05/07 12:48:45;;;;;;;7.60;3.77;;;27.40;49.40;;;;;;5020780;28;20213;-95
2022/05/07 12:51:20;;;;;;;8.83;4.83;;;27.50;48.80;;;;;;5008571;28;20604;-96
2022/05/07 12:53:50;;;;;;;8.03;2.90;;;27.60;48.30;;;;;;5015203;28;20204;-94
2022/05/07 12:56:28;;;;;;;3.50;2.60;;;27.60;48.30;;;;;;5024810;28;20206;-96
2022/05/07 12:58:58;;;;;;;4.27;3.27;;;27.70;48.00;;;;;;5020938;28;20212;-96
2022/05/07 13:01:34;;;;;;;6.97;3.30;;;27.70;48.00;;;;;;5017022;28;20201;-96
2022/05/07 13:04:01;;;;;;;5.87;3.40;;;27.80;48.30;;;;;;5017402;28;20212;-96
2022/05/07 13:06:28;;;;;;;8.33;3.63;;;27.80;48.60;;;;;;5017022;28;20201;-95
2022/05/07 13:09:35;;;;;;;9.97;4.33;;;27.90;48.30;;;;;;5013966;28;20686;-95
2022/05/07 13:12:13;;;;;;;5.77;3.07;;;28.00;47.30;;;;;;5027798;28;20236;-96
2022/05/07 13:14:40;;;;;;;8.37;3.43;;;28.10;47.20;;;;;;5033050;28;20194;-96
2022/05/07 13:17:21;;;;;;;4.10;2.10;;;28.20;46.50;;;;;;5034984;28;20218;-95
2022/05/07 13:20:13;;;;;;;1.47;1.10;;;28.20;45.60;;;;;;5024798;28;20221;-95
2022/05/07 13:32:13;;;;;;;6.13;3.07;;;28.30;45.20;;;;;;5027601;28;20249;-96
2022/05/07 13:38:55;;;;;;;6.43;4.50;;;28.40;45.90;;;;;;5020628;28;20218;-95
2022/05/07 13:41:32;;;;;;;5.73;4.67;;;28.40;45.90;;;;;;5012227;28;20224;-96
2022/05/07 13:47:07;;;;;;;11.07;6.90;;;28.40;45.90;;;;;;5024107;28;20212;-96
2022/05/07 13:49:46;;;;;;;8.40;5.53;;;28.40;46.30;;;;;;5028157;28;20209;-95
2022/05/07 13:52:51;;;;;;;6.90;5.60;;;28.30;46.80;;;;;;5023551;28;20229;-94
2022/05/07 13:58:11;;;;;;;9.20;6.43;;;28.20;46.60;;;;;;5022905;28;20220;-96
2022/05/07 14:00:41;;;;;;;7.30;5.53;;;28.10;47.10;;;;;;5020327;28;20212;-96
2022/05/07 14:03:15;;;;;;;9.80;5.67;;;28.00;47.20;;;;;;5007298;28;20206;-96
2022/05/07 14:05:54;;;;;;;6.60;5.10;;;27.90;47.10;;;;;;5003903;28;20197;-96
2022/05/07 14:08:28;;;;;;;9.50;6.17;;;27.90;47.00;;;;;;5008955;28;20236;-96
2022/05/07 14:11:12;;;;;;;9.53;5.90;;;27.70;47.00;;;;;;5029763;28;20247;-96
2022/05/07 14:13:40;;;;;;;10.40;6.27;;;27.60;47.40;;;;;;5022696;28;20185;-96
2022/05/07 14:16:08;;;;;;;7.63;5.10;;;27.60;47.40;;;;;;5022091;28;20236;-92
2022/05/07 14:19:14;;;;;;;9.70;6.07;;;27.60;47.60;;;;;;4998957;28;20198;-96
2022/05/07 14:22:00;;;;;;;7.40;4.93;;;27.50;47.20;;;;;;5006143;28;20213;-95
2022/05/07 14:24:29;;;;;;;7.10;5.57;;;27.50;47.40;;;;;;5029785;28;20704;-96
2022/05/07 14:27:10;;;;;;;8.83;6.10;;;27.40;47.60;;;;;;5026485;28;20182;-96
2022/05/07 14:33:07;;;;;;;8.90;5.37;;;27.30;47.50;;;;;;4983553;28;20281;-95
2022/05/07 14:35:55;;;;;;;;;;;;;;;;;;;;;
2022/05/07 14:38:49;;;;;;;10.83;6.83;;;27.20;47.80;;;;;;5012140;28;20309;-96
2022/05/07 14:44:34;;;;;;;10.80;6.87;;;27.20;47.80;;;;;;5426191;23;20228;-96
2022/05/07 14:50:09;;;;;;;11.47;6.90;;;27.00;47.80;;;;;;5036186;28;20205;-95
2022/05/07 14:53:18;;;;;;;8.73;5.73;;;26.90;47.70;;;;;;5042816;28;20233;-95
2022/05/07 14:55:48;;;;;;;8.73;6.60;;;26.80;47.70;;;;;;5043344;28;20207;-94
2022/05/07 14:58:19;;;;;;;8.43;5.60;;;26.70;47.90;;;;;;5039848;28;20228;-95
2022/05/07 15:00:54;;;;;;;8.37;5.93;;;26.60;48.10;;;;;;5041147;28;20203;-96
2022/05/07 15:03:54;;;;;;;8.03;6.03;;;26.50;48.10;;;;;;5042165;28;20795;-96
2022/05/07 15:06:22;;;;;;;9.30;6.20;;;26.30;48.30;;;;;;5038622;28;20230;-95
2022/05/07 15:11:59;;;;;;;9.93;6.60;;;26.00;48.60;;;;;;5000348;28;20314;-95
2022/05/07 15:14:29;;;;;;;15.47;6.60;;;25.90;48.90;;;;;;5041978;28;20200;-95
2022/05/07 15:17:06;;;;;;;14.03;7.97;;;25.70;48.90;;;;;;5045271;28;20250;-95
2022/05/07 15:22:41;;;;;;;8.10;6.10;;;25.40;49.40;;;;;;5035010;28;20203;-96
2022/05/07 15:25:10;;;;;;;9.90;7.07;;;25.20;49.70;;;;;;5040066;28;20723;-95
2022/05/07 15:27:54;;;;;;;;;;;;;;;;;;;;;
2022/05/07 15:30:21;;;;;;;9.00;6.83;;;25.00;50.40;;;;;;5039928;28;20283;-95
2022/05/07 15:38:28;;;;;;;12.10;7.33;;;24.70;50.50;;;;;;5037110;28;20549;-96
2022/05/07 15:43:43;;;;;;;8.57;6.07;;;24.50;50.80;;;;;;5036560;28;22001;-95
2022/05/07 15:46:16;;;;;;;10.10;6.33;;;24.50;51.10;;;;;;5028781;28;20219;-94
2022/05/07 15:48:45;;;;;;;8.43;5.93;;;24.40;51.20;;;;;;5037699;28;20200;-96
2022/05/07 15:51:15;;;;;;;10.93;6.83;;;24.40;51.50;;;;;;5036710;28;20231;-92
2022/05/07 15:53:54;;;;;;;8.83;6.33;;;24.40;51.50;;;;;;5040068;28;20231;-96